Time;durP1;ratioP1;P1;durP2;ratioP2;P2;SDS_P1;SDS_P2;PMS_P1;PMS_P2;Temp;Humidity;BMP_temperature;BMP_pressure;BME280_temperature;BME280_humidity;BME280_pressure;Samples;Min_cycle;Max_cycle;Signal;HPM_P1;HPM_P2
2021/08/26 00:00:22;;;;;;;;;;;20.00;66.20;;;;;;5089059;28;20647;-57
2021/08/26 00:05:48;;;;;;;;;;;20.00;66.30;;;;;;5091621;27;20027;-54
2021/08/26 00:08:18;;;;;;;;;;;20.00;66.30;;;;;;5091293;27;19920;-58
2021/08/26 00:10:43;;;;;;;;;;;20.00;66.30;;;;;;5089124;27;19956;-56
2021/08/26 00:13:11;;;;;;;;;;;20.00;66.30;;;;;;5087904;28;19947;-55
2021/08/26 00:15:36;;;;;;;;;;;20.00;66.30;;;;;;5093075;27;19916;-58
2021/08/26 00:18:02;;;;;;;;;;;20.00;65.20;;;;;;5095398;28;19912;-57
2021/08/26 00:20:27;;;;;;;;;;;20.00;65.50;;;;;;5101696;27;20658;-59
2021/08/26 00:22:53;;;;;;;;;;;20.00;65.20;;;;;;5091159;27;19920;-58
2021/08/26 00:25:18;;;;;;;;;;;20.00;65.80;;;;;;5092237;27;19947;-57
2021/08/26 00:27:44;;;;;;;;;;;20.00;65.90;;;;;;5087929;27;20006;-56
2021/08/26 00:30:09;;;;;;;;;;;20.00;66.00;;;;;;5095186;27;19960;-58
2021/08/26 00:32:35;;;;;;;;;;;20.00;66.30;;;;;;5093027;27;19912;-59
2021/08/26 00:35:00;;;;;;;;;;;20.00;66.30;;;;;;5100508;27;20167;-55
2021/08/26 00:37:26;;;;;;;;;;;20.00;66.40;;;;;;5101364;27;20403;-54
2021/08/26 00:39:51;;;;;;;;;;;20.00;66.70;;;;;;5083001;28;19912;-57
2021/08/26 00:42:17;;;;;;;;;;;20.00;66.70;;;;;;5085708;27;19920;-58
2021/08/26 00:44:42;;;;;;;;;;;20.00;66.70;;;;;;5088301;27;20623;-56
2021/08/26 00:47:08;;;;;;;;;;;20.00;66.70;;;;;;5094231;27;20391;-58
2021/08/26 00:49:34;;;;;;;;;;;20.00;66.80;;;;;;5083653;28;19919;-59
2021/08/26 00:51:59;;;;;;;;;;;20.00;66.80;;;;;;5100208;27;19916;-54
2021/08/26 00:54:24;;;;;;;;;;;20.00;66.90;;;;;;5099312;27;19912;-54
2021/08/26 00:56:50;;;;;;;;;;;20.00;66.70;;;;;;5086907;27;19920;-58
2021/08/26 00:59:15;;;;;;;;;;;20.00;66.90;;;;;;5082250;28;19916;-54
2021/08/26 01:01:51;;;;;;;;;;;20.00;66.80;;;;;;5087143;27;20536;-57
2021/08/26 01:04:16;;;;;;;;;;;20.00;67.10;;;;;;5087929;27;19918;-56
2021/08/26 01:06:48;;;;;;;;;;;20.00;66.90;;;;;;5091867;27;20392;-55
2021/08/26 01:09:13;;;;;;;;;;;20.00;66.90;;;;;;5086043;27;19981;-58
2021/08/26 01:11:41;;;;;;;;;;;20.00;67.10;;;;;;5100698;28;20384;-57
2021/08/26 01:14:07;;;;;;;;;;;20.00;66.70;;;;;;5091753;28;19920;-56
2021/08/26 01:16:34;;;;;;;;;;;20.00;67.00;;;;;;5088042;28;19916;-58
2021/08/26 01:19:00;;;;;;;;;;;20.00;67.00;;;;;;5090683;27;19912;-55
2021/08/26 01:21:25;;;;;;;;;;;20.00;67.00;;;;;;5090719;27;19918;-56
2021/08/26 01:23:54;;;;;;;;;;;20.00;66.80;;;;;;5090894;27;20412;-55
2021/08/26 01:26:23;;;;;;;;;;;20.00;66.90;;;;;;5088730;27;19916;-56
2021/08/26 01:28:49;;;;;;;;;;;20.00;67.10;;;;;;5100808;27;19918;-59
2021/08/26 01:31:18;;;;;;;;;;;20.00;67.00;;;;;;5092799;28;19916;-59
2021/08/26 01:33:45;;;;;;;;;;;20.00;66.80;;;;;;5100533;27;19919;-55
2021/08/26 01:36:11;;;;;;;;;;;20.00;67.20;;;;;;5083803;28;19999;-57
2021/08/26 01:38:36;;;;;;;;;;;20.00;67.20;;;;;;5099210;27;19911;-59
2021/08/26 01:41:02;;;;;;;;;;;20.00;67.20;;;;;;5099850;27;19928;-57
2021/08/26 01:43:28;;;;;;;;;;;20.00;67.30;;;;;;5090681;27;20311;-58
2021/08/26 01:45:54;;;;;;;;;;;20.00;67.30;;;;;;5081717;28;19924;-56
2021/08/26 01:48:19;;;;;;;;;;;20.00;67.00;;;;;;5090547;27;19912;-59
2021/08/26 01:50:48;;;;;;;;;;;20.10;67.20;;;;;;5100403;27;19987;-58
2021/08/26 01:53:14;;;;;;;;;;;20.00;67.10;;;;;;5102503;27;20384;-56
2021/08/26 01:55:39;;;;;;;;;;;20.00;67.30;;;;;;5092009;27;19962;-59
2021/08/26 01:58:04;;;;;;;;;;;20.10;67.40;;;;;;5092859;28;19912;-57
2021/08/26 02:00:30;;;;;;;;;;;20.00;67.30;;;;;;5088599;27;19916;-55
2021/08/26 02:02:55;;;;;;;;;;;20.10;67.30;;;;;;5099420;27;19920;-59
2021/08/26 02:05:21;;;;;;;;;;;20.00;67.30;;;;;;5106246;27;20337;-57
2021/08/26 02:07:47;;;;;;;;;;;19.90;66.90;;;;;;5095442;27;19912;-56
2021/08/26 02:10:12;;;;;;;;;;;20.00;67.50;;;;;;5098497;27;20439;-56
2021/08/26 02:12:37;;;;;;;;;;;20.00;67.00;;;;;;5095995;27;19912;-57
2021/08/26 02:15:03;;;;;;;;;;;20.00;66.80;;;;;;5091555;27;20099;-54
2021/08/26 02:17:29;;;;;;;;;;;20.00;67.00;;;;;;5098706;27;19920;-54
2021/08/26 02:19:54;;;;;;;;;;;20.00;67.20;;;;;;5089141;27;19916;-58
2021/08/26 02:22:20;;;;;;;;;;;20.00;67.40;;;;;;5089066;27;19938;-54
2021/08/26 02:24:45;;;;;;;;;;;20.00;67.30;;;;;;5096189;27;19929;-55
2021/08/26 02:27:11;;;;;;;;;;;20.10;67.30;;;;;;5096298;27;20285;-58
2021/08/26 02:29:36;;;;;;;;;;;20.10;66.80;;;;;;5097855;27;19916;-59
2021/08/26 02:32:02;;;;;;;;;;;20.10;67.00;;;;;;5090293;28;19922;-53
2021/08/26 02:34:27;;;;;;;;;;;20.10;66.90;;;;;;5104578;27;19920;-55
2021/08/26 02:36:53;;;;;;;;;;;20.10;67.10;;;;;;5089477;28;19923;-59
2021/08/26 02:39:18;;;;;;;;;;;20.00;67.30;;;;;;5093125;27;20429;-55
2021/08/26 02:41:43;;;;;;;;;;;20.00;67.00;;;;;;5095646;27;19924;-58
2021/08/26 02:44:09;;;;;;;;;;;20.00;67.10;;;;;;5090648;27;19917;-55
2021/08/26 02:46:34;;;;;;;;;;;20.00;67.50;;;;;;5096308;27;19916;-56
2021/08/26 02:49:00;;;;;;;;;;;20.00;67.50;;;;;;5104357;27;19961;-57
2021/08/26 02:51:25;;;;;;;;;;;20.00;67.60;;;;;;5096457;27;19912;-54
2021/08/26 02:53:51;;;;;;;;;;;20.00;66.80;;;;;;5100054;27;19912;-54
2021/08/26 02:56:16;;;;;;;;;;;20.00;66.90;;;;;;5104806;27;19919;-55
2021/08/26 02:58:41;;;;;;;;;;;20.00;67.20;;;;;;5095667;28;19923;-58
2021/08/26 03:01:07;;;;;;;;;;;20.00;67.60;;;;;;5104439;27;19912;-58
2021/08/26 03:03:32;;;;;;;;;;;20.00;67.40;;;;;;5104806;27;20309;-58
2021/08/26 03:05:58;;;;;;;;;;;20.00;67.10;;;;;;5099825;27;19931;-59
2021/08/26 03:08:23;;;;;;;;;;;20.00;67.60;;;;;;5094988;27;19916;-59
2021/08/26 03:10:49;;;;;;;;;;;20.00;66.90;;;;;;5092957;27;19912;-57
2021/08/26 03:13:14;;;;;;;;;;;20.00;67.30;;;;;;5092411;27;20312;-57
2021/08/26 03:15:40;;;;;;;;;;;20.00;67.10;;;;;;5087607;27;19995;-56
2021/08/26 03:18:05;;;;;;;;;;;20.00;67.50;;;;;;5095453;27;19916;-54
2021/08/26 03:20:31;;;;;;;;;;;20.00;67.60;;;;;;5095193;27;19993;-57
2021/08/26 03:22:56;;;;;;;;;;;20.00;67.40;;;;;;5087020;27;19918;-58
2021/08/26 03:25:21;;;;;;;;;;;20.10;67.50;;;;;;5095760;27;19916;-54
2021/08/26 03:27:47;;;;;;;;;;;20.00;67.50;;;;;;5095667;27;19912;-54
2021/08/26 03:30:12;;;;;;;;;;;20.00;67.40;;;;;;5092441;27;19931;-55
2021/08/26 03:32:38;;;;;;;;;;;20.10;67.30;;;;;;5091825;28;19938;-53
2021/08/26 03:35:04;;;;;;;;;;;20.10;67.20;;;;;;5096062;27;20003;-56
2021/08/26 03:37:29;;;;;;;;;;;20.00;67.40;;;;;;5097332;27;19946;-57
2021/08/26 03:39:55;;;;;;;;;;;20.00;67.30;;;;;;5087887;28;19976;-58
2021/08/26 03:42:20;;;;;;;;;;;20.00;67.40;;;;;;5095901;27;19920;-56
2021/08/26 03:44:46;;;;;;;;;;;20.00;67.20;;;;;;5087310;27;20118;-54
2021/08/26 03:47:11;;;;;;;;;;;19.90;66.00;;;;;;5087576;28;19916;-59
2021/08/26 03:49:37;;;;;;;;;;;19.90;66.80;;;;;;5098626;27;19911;-56
2021/08/26 03:52:02;;;;;;;;;;;19.90;66.80;;;;;;5089052;27;20518;-56
2021/08/26 03:54:28;;;;;;;;;;;19.90;66.30;;;;;;5091606;27;19919;-54
2021/08/26 03:56:53;;;;;;;;;;;19.80;66.70;;;;;;5092627;27;19965;-57
2021/08/26 03:59:19;;;;;;;;;;;19.70;67.00;;;;;;5091950;27;19926;-58
2021/08/26 04:01:44;;;;;;;;;;;19.80;67.20;;;;;;5095757;27;19912;-56
2021/08/26 04:04:10;;;;;;;;;;;19.90;67.10;;;;;;5088708;27;19939;-57
2021/08/26 04:06:35;;;;;;;;;;;19.90;67.10;;;;;;5086837;28;19916;-53
2021/08/26 04:09:01;;;;;;;;;;;19.90;66.80;;;;;;5082921;28;20011;-53
2021/08/26 04:11:26;;;;;;;;;;;19.90;66.90;;;;;;5090913;28;19957;-58
2021/08/26 04:13:52;;;;;;;;;;;20.00;67.20;;;;;;5093040;27;20660;-57
2021/08/26 04:16:17;;;;;;;;;;;20.00;66.90;;;;;;5089235;28;20400;-57
2021/08/26 04:18:42;;;;;;;;;;;19.90;66.60;;;;;;5085829;28;19918;-54
2021/08/26 04:21:08;;;;;;;;;;;19.80;66.90;;;;;;5096466;28;19912;-53
2021/08/26 04:23:33;;;;;;;;;;;19.70;67.10;;;;;;5088295;27;19920;-58
2021/08/26 04:25:59;;;;;;;;;;;19.60;67.40;;;;;;5086323;28;19924;-58
2021/08/26 04:28:24;;;;;;;;;;;19.70;67.30;;;;;;5088642;27;19950;-57
2021/08/26 04:30:50;;;;;;;;;;;19.80;66.30;;;;;;5087351;27;19918;-58
2021/08/26 04:33:16;;;;;;;;;;;19.70;66.20;;;;;;5085104;27;20373;-55
2021/08/26 04:35:41;;;;;;;;;;;19.80;67.40;;;;;;5102037;27;19919;-55
2021/08/26 04:38:07;;;;;;;;;;;19.80;67.80;;;;;;5089657;28;20423;-55
2021/08/26 04:40:32;;;;;;;;;;;19.90;67.00;;;;;;5096216;27;19919;-55
2021/08/26 04:42:58;;;;;;;;;;;19.90;67.90;;;;;;5097562;27;19920;-58
2021/08/26 04:45:23;;;;;;;;;;;19.90;67.20;;;;;;5087535;27;20324;-54
2021/08/26 04:47:49;;;;;;;;;;;19.90;67.70;;;;;;5096681;27;19912;-56
2021/08/26 04:50:14;;;;;;;;;;;19.90;67.40;;;;;;5091566;27;20430;-57
2021/08/26 04:52:39;;;;;;;;;;;20.00;66.90;;;;;;5093695;27;19919;-59
2021/08/26 04:55:05;;;;;;;;;;;19.90;67.20;;;;;;5094406;27;19965;-53
2021/08/26 04:57:31;;;;;;;;;;;20.00;67.00;;;;;;5087237;27;20325;-58
2021/08/26 04:59:56;;;;;;;;;;;20.00;68.00;;;;;;5081166;28;20468;-58
2021/08/26 05:02:21;;;;;;;;;;;20.00;67.00;;;;;;5091854;27;19972;-57
2021/08/26 05:04:47;;;;;;;;;;;20.00;67.10;;;;;;5092994;27;19927;-57
2021/08/26 05:07:12;;;;;;;;;;;20.00;67.20;;;;;;5089239;28;19916;-58
2021/08/26 05:09:38;;;;;;;;;;;20.00;67.00;;;;;;5085138;28;20701;-55
2021/08/26 05:12:06;;;;;;;;;;;20.00;66.90;;;;;;5083231;28;19916;-56
2021/08/26 05:14:31;;;;;;;;;;;20.00;67.10;;;;;;5090108;27;19916;-60
2021/08/26 05:16:58;;;;;;;;;;;20.00;67.80;;;;;;5087144;27;19919;-57
2021/08/26 05:19:24;;;;;;;;;;;19.90;67.80;;;;;;5094804;28;19916;-56
2021/08/26 05:21:49;;;;;;;;;;;20.00;67.80;;;;;;5091124;27;19911;-58
2021/08/26 05:24:14;;;;;;;;;;;19.90;68.40;;;;;;5088371;27;19916;-59
2021/08/26 05:26:40;;;;;;;;;;;19.90;68.40;;;;;;5077450;28;19916;-60
2021/08/26 05:29:05;;;;;;;;;;;19.90;68.40;;;;;;5085821;27;20380;-55
2021/08/26 05:31:31;;;;;;;;;;;20.00;67.00;;;;;;5099981;27;19912;-57
2021/08/26 05:33:56;;;;;;;;;;;19.90;68.10;;;;;;5091968;28;19912;-58
2021/08/26 05:36:22;;;;;;;;;;;19.90;67.60;;;;;;5094037;27;19912;-58
2021/08/26 05:38:47;;;;;;;;;;;19.90;67.60;;;;;;5103156;27;20552;-58
2021/08/26 05:41:13;;;;;;;;;;;19.90;67.30;;;;;;5096903;27;19916;-58
2021/08/26 05:43:38;;;;;;;;;;;19.90;67.10;;;;;;5097549;27;19958;-58
2021/08/26 05:46:05;;;;;;;;;;;19.90;67.20;;;;;;5101061;27;19926;-58
2021/08/26 05:48:31;;;;;;;;;;;19.90;66.90;;;;;;5091067;27;19992;-59
2021/08/26 05:50:56;;;;;;;;;;;19.90;67.30;;;;;;5090677;27;19912;-59
2021/08/26 05:53:22;;;;;;;;;;;19.90;66.50;;;;;;5098955;27;19920;-59
2021/08/26 05:55:47;;;;;;;;;;;19.90;66.70;;;;;;5104472;28;20022;-56
2021/08/26 05:58:13;;;;;;;;;;;19.90;66.60;;;;;;5097152;27;19912;-57
2021/08/26 06:00:38;;;;;;;;;;;20.00;66.30;;;;;;5097231;27;20376;-58
2021/08/26 06:03:04;;;;;;;;;;;20.00;66.50;;;;;;5091589;28;19982;-59
2021/08/26 06:05:29;;;;;;;;;;;20.00;66.10;;;;;;5097355;27;19963;-55
2021/08/26 06:07:55;;;;;;;;;;;20.00;66.20;;;;;;5104395;27;20398;-58
2021/08/26 06:10:20;;;;;;;;;;;19.90;66.20;;;;;;5099268;27;20002;-58
2021/08/26 06:12:46;;;;;;;;;;;20.00;66.10;;;;;;5103931;27;19912;-57
2021/08/26 06:15:11;;;;;;;;;;;20.00;66.10;;;;;;5085166;28;19912;-55
2021/08/26 06:17:37;;;;;;;;;;;20.00;66.10;;;;;;5086595;28;20419;-55
2021/08/26 06:20:03;;;;;;;;;;;20.00;66.00;;;;;;5103765;27;20002;-58
2021/08/26 06:22:29;;;;;;;;;;;20.00;65.80;;;;;;5096608;27;20052;-57
2021/08/26 06:24:54;;;;;;;;;;;20.00;65.80;;;;;;5094506;27;19991;-56
2021/08/26 06:27:20;;;;;;;;;;;20.00;64.50;;;;;;5089482;27;19912;-58
2021/08/26 06:29:45;;;;;;;;;;;19.90;65.80;;;;;;5089529;27;20415;-58
2021/08/26 06:32:11;;;;;;;;;;;19.90;65.00;;;;;;5097524;28;19912;-58
2021/08/26 06:34:36;;;;;;;;;;;19.90;64.90;;;;;;5086610;28;19912;-59
2021/08/26 06:37:02;;;;;;;;;;;19.90;65.40;;;;;;5103254;27;19919;-58
2021/08/26 06:39:27;;;;;;;;;;;19.90;65.00;;;;;;5091074;27;19912;-58
2021/08/26 06:41:53;;;;;;;;;;;19.90;65.30;;;;;;5087952;28;19997;-57
2021/08/26 06:44:18;;;;;;;;;;;19.90;65.10;;;;;;5100787;27;19912;-57
2021/08/26 06:46:44;;;;;;;;;;;19.90;65.40;;;;;;5101789;27;19920;-55
2021/08/26 06:49:09;;;;;;;;;;;19.90;65.20;;;;;;5092679;27;19919;-57
2021/08/26 06:51:35;;;;;;;;;;;20.00;65.30;;;;;;5102378;27;19916;-55
2021/08/26 06:54:00;;;;;;;;;;;20.00;65.30;;;;;;5097023;27;19924;-57
2021/08/26 06:56:26;;;;;;;;;;;20.00;65.40;;;;;;5087966;27;19912;-56
2021/08/26 06:58:51;;;;;;;;;;;20.00;65.40;;;;;;5096227;27;19912;-55
2021/08/26 07:01:17;;;;;;;;;;;20.00;65.40;;;;;;5091138;27;19923;-55
2021/08/26 07:03:42;;;;;;;;;;;20.00;65.40;;;;;;5105299;27;19912;-58
2021/08/26 07:06:08;;;;;;;;;;;20.00;65.60;;;;;;5096648;27;19935;-52
2021/08/26 07:08:33;;;;;;;;;;;20.00;65.80;;;;;;5096688;27;19912;-55
2021/08/26 07:10:58;;;;;;;;;;;20.00;65.70;;;;;;5085099;28;19920;-54
2021/08/26 07:13:24;;;;;;;;;;;19.90;65.80;;;;;;5102723;27;20273;-58
2021/08/26 07:15:49;;;;;;;;;;;19.90;65.90;;;;;;5097104;27;19912;-57
2021/08/26 07:18:18;;;;;;;;;;;19.90;65.70;;;;;;5093613;27;20300;-57
2021/08/26 07:20:44;;;;;;;;;;;19.90;65.90;;;;;;5093404;27;20014;-57
2021/08/26 07:23:09;;;;;;;;;;;19.90;65.30;;;;;;5095829;27;20002;-59
2021/08/26 07:25:34;;;;;;;;;;;19.90;65.40;;;;;;5098702;27;19942;-57
2021/08/26 07:28:00;;;;;;;;;;;19.90;65.60;;;;;;5094073;27;21106;-57
2021/08/26 07:30:26;;;;;;;;;;;19.90;65.50;;;;;;5099249;27;19968;-57
2021/08/26 07:32:52;;;;;;;;;;;19.90;65.90;;;;;;5086182;27;20553;-55
2021/08/26 07:35:17;;;;;;;;;;;19.90;65.60;;;;;;5095412;27;19923;-57
2021/08/26 07:37:43;;;;;;;;;;;19.90;65.50;;;;;;5095131;27;20282;-58
2021/08/26 07:40:11;;;;;;;;;;;19.90;65.00;;;;;;5094975;27;19939;-54
2021/08/26 07:42:37;;;;;;;;;;;19.80;65.80;;;;;;5095505;27;20262;-55
2021/08/26 07:45:03;;;;;;;;;;;19.90;65.90;;;;;;5098514;27;19973;-58
2021/08/26 07:47:29;;;;;;;;;;;19.80;65.80;;;;;;5103978;27;19916;-57
2021/08/26 07:49:54;;;;;;;;;;;19.80;66.00;;;;;;5091292;27;19965;-58
2021/08/26 07:52:20;;;;;;;;;;;19.80;66.90;;;;;;5083327;28;19912;-58
2021/08/26 07:54:45;;;;;;;;;;;19.80;65.80;;;;;;5083021;28;19923;-55
2021/08/26 07:57:11;;;;;;;;;;;19.80;66.00;;;;;;5093493;27;19919;-53
2021/08/26 07:59:36;;;;;;;;;;;19.80;66.30;;;;;;5090143;28;20368;-56
2021/08/26 08:02:01;;;;;;;;;;;19.80;66.20;;;;;;5093364;27;20424;-58
2021/08/26 08:04:27;;;;;;;;;;;19.90;66.20;;;;;;5094630;27;19916;-55
2021/08/26 08:06:52;;;;;;;;;;;19.80;66.30;;;;;;5083895;28;19912;-59
2021/08/26 08:09:18;;;;;;;;;;;19.80;66.50;;;;;;5092846;27;19916;-56
2021/08/26 08:11:43;;;;;;;;;;;19.80;66.30;;;;;;5095222;27;20403;-58
2021/08/26 08:14:09;;;;;;;;;;;19.80;66.30;;;;;;5096343;27;19920;-57
2021/08/26 08:16:34;;;;;;;;;;;19.90;66.40;;;;;;5092709;27;19916;-58
2021/08/26 08:19:00;;;;;;;;;;;19.90;66.10;;;;;;5087054;27;19912;-58
2021/08/26 08:21:25;;;;;;;;;;;19.80;66.50;;;;;;5091903;27;20297;-58
2021/08/26 08:23:50;;;;;;;;;;;19.70;66.10;;;;;;5087839;27;19912;-55
2021/08/26 08:26:16;;;;;;;;;;;19.70;66.00;;;;;;5093107;27;19920;-57
2021/08/26 08:28:41;;;;;;;;;;;19.80;66.60;;;;;;5094243;27;20274;-59
2021/08/26 08:31:07;;;;;;;;;;;19.70;66.40;;;;;;5083709;28;19912;-55
2021/08/26 08:33:32;;;;;;;;;;;19.80;66.80;;;;;;5091332;27;19912;-56
2021/08/26 08:35:58;;;;;;;;;;;19.80;66.40;;;;;;5086635;27;19912;-56
2021/08/26 08:38:23;;;;;;;;;;;19.80;65.90;;;;;;5082562;28;19927;-57
2021/08/26 08:40:49;;;;;;;;;;;19.70;66.30;;;;;;5102257;27;20404;-57
2021/08/26 08:43:14;;;;;;;;;;;19.80;66.30;;;;;;5085905;28;19920;-57
2021/08/26 08:45:46;;;;;;;;;;;19.80;66.30;;;;;;5091318;27;19927;-57
2021/08/26 08:48:12;;;;;;;;;;;19.70;66.30;;;;;;5084236;27;19912;-58
2021/08/26 08:50:38;;;;;;;;;;;19.70;66.00;;;;;;5082187;28;20585;-57
2021/08/26 08:53:03;;;;;;;;;;;19.70;66.10;;;;;;5100616;27;20296;-58
2021/08/26 08:55:29;;;;;;;;;;;19.80;66.60;;;;;;5097689;27;19916;-54
2021/08/26 08:57:54;;;;;;;;;;;19.70;66.70;;;;;;5095629;27;19923;-55
2021/08/26 09:00:20;;;;;;;;;;;19.80;66.60;;;;;;5089975;27;20435;-54
2021/08/26 09:02:45;;;;;;;;;;;19.80;66.50;;;;;;5102282;27;19912;-57
2021/08/26 09:05:11;;;;;;;;;;;19.70;65.80;;;;;;5098233;28;20540;-56
2021/08/26 09:07:37;;;;;;;;;;;19.70;66.20;;;;;;5090920;27;20177;-54
2021/08/26 09:10:03;;;;;;;;;;;19.70;66.90;;;;;;5089354;28;19934;-55
2021/08/26 09:12:40;;;;;;;;;;;19.80;66.40;;;;;;5095261;27;20399;-55
2021/08/26 09:15:09;;;;;;;;;;;19.70;66.50;;;;;;5101496;27;19912;-58
2021/08/26 09:17:35;;;;;;;;;;;19.80;66.80;;;;;;5095832;27;19920;-57
2021/08/26 09:20:01;;;;;;;;;;;19.70;66.20;;;;;;5094415;27;19915;-53
2021/08/26 09:22:27;;;;;;;;;;;19.70;66.90;;;;;;5104925;28;20048;-55
2021/08/26 09:24:52;;;;;;;;;;;19.70;66.20;;;;;;5101162;27;19919;-57
2021/08/26 09:27:37;;;;;;;;;;;19.80;67.60;;;;;;5102355;27;19913;-57
2021/08/26 09:30:02;;;;;;;;;;;19.80;67.10;;;;;;5095306;27;19922;-58
2021/08/26 09:32:36;;;;;;;;;;;19.80;66.70;;;;;;5099516;27;19919;-56
2021/08/26 09:35:09;;;;;;;;;;;19.80;67.10;;;;;;5095803;27;19974;-56
2021/08/26 09:37:39;;;;;;;;;;;19.80;66.40;;;;;;5090989;28;20363;-58
2021/08/26 09:40:05;;;;;;;;;;;19.80;66.60;;;;;;5092656;28;19920;-58
2021/08/26 09:42:30;;;;;;;;;;;19.70;65.60;;;;;;5085490;28;19948;-56
2021/08/26 09:44:56;;;;;;;;;;;19.70;66.00;;;;;;5101183;27;20448;-57
2021/08/26 09:47:21;;;;;;;;;;;19.70;66.50;;;;;;5087025;27;19973;-55
2021/08/26 09:49:47;;;;;;;;;;;19.70;65.90;;;;;;5101004;27;19918;-57
2021/08/26 09:52:13;;;;;;;;;;;19.70;64.70;;;;;;5085508;28;19919;-55
2021/08/26 09:54:39;;;;;;;;;;;19.70;64.50;;;;;;5094886;27;19912;-55
2021/08/26 09:57:05;;;;;;;;;;;19.70;64.30;;;;;;5098172;27;20093;-56
2021/08/26 09:59:57;;;;;;;;;;;19.70;64.80;;;;;;5099919;27;19998;-54
2021/08/26 10:02:26;;;;;;;;;;;19.70;65.70;;;;;;5084778;28;19926;-55
2021/08/26 10:04:52;;;;;;;;;;;19.70;66.20;;;;;;5091241;27;19920;-57
2021/08/26 10:07:17;;;;;;;;;;;19.70;66.00;;;;;;5097404;27;20037;-58
2021/08/26 10:09:43;;;;;;;;;;;19.80;66.10;;;;;;5087679;27;19919;-54
2021/08/26 10:12:12;;;;;;;;;;;19.80;66.30;;;;;;5101435;28;20333;-56
2021/08/26 10:14:40;;;;;;;;;;;19.70;65.80;;;;;;5100848;27;20118;-56
2021/08/26 10:17:06;;;;;;;;;;;19.80;65.20;;;;;;5095926;27;19912;-56
2021/08/26 10:19:32;;;;;;;;;;;19.70;66.40;;;;;;5094505;27;19973;-55
2021/08/26 10:21:57;;;;;;;;;;;19.80;66.50;;;;;;5093706;27;19920;-54
2021/08/26 10:24:23;;;;;;;;;;;19.80;66.80;;;;;;5097881;27;19912;-55
2021/08/26 10:26:50;;;;;;;;;;;19.80;66.40;;;;;;5101198;27;19951;-54
2021/08/26 10:29:15;;;;;;;;;;;19.80;66.00;;;;;;5093869;28;19938;-53
2021/08/26 10:31:41;;;;;;;;;;;19.80;65.80;;;;;;5100446;28;19912;-55
2021/08/26 10:34:10;;;;;;;;;;;19.80;66.50;;;;;;5099125;28;19912;-57
2021/08/26 10:36:46;;;;;;;;;;;19.80;66.60;;;;;;5090967;27;19962;-55
2021/08/26 10:39:24;;;;;;;;;;;19.70;66.60;;;;;;5098299;27;19912;-56
2021/08/26 10:44:45;;;;;;;;;;;19.80;66.80;;;;;;5066248;28;20027;-69
2021/08/26 10:47:12;;;;;;;;;;;19.70;66.20;;;;;;5074682;28;19916;-67
2021/08/26 10:49:40;;;;;;;;;;;19.70;66.70;;;;;;5080576;28;19947;-68
2021/08/26 10:52:06;;;;;;;;;;;19.70;66.60;;;;;;5062614;28;20006;-68
2021/08/26 10:54:32;;;;;;;;;;;19.70;66.60;;;;;;5062409;28;19913;-68
2021/08/26 10:57:17;;;;;;;;;;;19.70;66.70;;;;;;5063495;28;20348;-68
2021/08/26 10:59:43;;;;;;;;;;;19.70;66.40;;;;;;5075434;28;19920;-69
2021/08/26 11:02:14;;;;;;;;;;;19.70;66.70;;;;;;5064303;28;20155;-68
2021/08/26 11:04:40;;;;;;;;;;;19.70;66.70;;;;;;5062797;28;20927;-69
2021/08/26 11:07:05;;;;;;;;;;;19.70;66.20;;;;;;5074014;28;19923;-69
2021/08/26 11:09:31;;;;;;;;;;;19.80;66.50;;;;;;5070473;28;20414;-69
2021/08/26 11:11:59;;;;;;;;;;;19.80;66.30;;;;;;5067528;28;20340;-69
2021/08/26 11:14:25;;;;;;;;;;;19.70;66.30;;;;;;5085709;28;20402;-69
2021/08/26 11:16:51;;;;;;;;;;;19.70;65.10;;;;;;5081049;28;19999;-68
2021/08/26 11:19:20;;;;;;;;;;;19.70;64.40;;;;;;5065454;28;20000;-68
2021/08/26 11:21:45;;;;;;;;;;;19.70;65.20;;;;;;5064629;28;20319;-68
2021/08/26 11:24:14;;;;;;;;;;;19.60;64.60;;;;;;5078328;28;19912;-68
2021/08/26 11:26:52;;;;;;;;;;;19.60;65.00;;;;;;5072666;28;19920;-68
2021/08/26 11:29:17;;;;;;;;;;;19.60;65.90;;;;;;5063754;28;21358;-67
2021/08/26 11:31:55;;;;;;;;;;;19.70;66.10;;;;;;5084453;28;20003;-67
2021/08/26 11:34:20;;;;;;;;;;;19.70;65.40;;;;;;5075626;28;20401;-68
2021/08/26 11:37:03;;;;;;;;;;;19.70;65.60;;;;;;5079339;28;19952;-68
2021/08/26 11:39:29;;;;;;;;;;;19.70;65.70;;;;;;5062759;28;20371;-68
2021/08/26 11:41:55;;;;;;;;;;;19.70;65.50;;;;;;5045828;28;19958;-67
2021/08/26 11:44:20;;;;;;;;;;;19.70;66.40;;;;;;5063745;28;19964;-68
2021/08/26 11:46:45;;;;;;;;;;;19.70;65.80;;;;;;5048915;28;19920;-68
2021/08/26 11:49:11;;;;;;;;;;;19.60;64.70;;;;;;5063122;28;19966;-68
2021/08/26 11:51:36;;;;;;;;;;;19.70;65.90;;;;;;5063646;28;20121;-68
2021/08/26 11:54:12;;;;;;;;;;;19.70;65.90;;;;;;5077020;28;21088;-67
2021/08/26 11:56:44;;;;;;;;;;;19.60;66.20;;;;;;5073060;28;20378;-68
2021/08/26 11:59:28;;;;;;;;;;;19.70;66.30;;;;;;5066109;28;19913;-67
2021/08/26 12:02:12;;;;;;;;;;;19.70;66.50;;;;;;5065213;28;20050;-67
2021/08/26 12:04:38;;;;;;;;;;;19.70;65.90;;;;;;5075359;28;20302;-68
2021/08/26 12:07:03;;;;;;;;;;;19.70;66.60;;;;;;5079845;28;19916;-66
2021/08/26 12:09:29;;;;;;;;;;;19.70;66.20;;;;;;5064355;28;20325;-68
2021/08/26 12:11:54;;;;;;;;;;;19.70;66.30;;;;;;5062067;28;19912;-67
2021/08/26 12:14:20;;;;;;;;;;;19.70;66.70;;;;;;5064583;28;19918;-67
2021/08/26 12:16:45;;;;;;;;;;;19.70;66.80;;;;;;5064327;28;19913;-66
2021/08/26 12:19:11;;;;;;;;;;;19.70;66.90;;;;;;5074177;28;19938;-67
2021/08/26 12:21:36;;;;;;;;;;;19.70;67.10;;;;;;5061957;28;20341;-67
2021/08/26 12:24:01;;;;;;;;;;;19.70;67.10;;;;;;5065433;28;19920;-68
2021/08/26 12:26:27;;;;;;;;;;;19.60;67.10;;;;;;5065255;28;19924;-68
2021/08/26 12:28:56;;;;;;;;;;;19.70;67.30;;;;;;5061376;28;20694;-67
2021/08/26 12:31:21;;;;;;;;;;;19.70;67.20;;;;;;5065437;28;19916;-69
2021/08/26 12:34:00;;;;;;;;;;;19.70;67.30;;;;;;5072899;28;19912;-68
2021/08/26 12:36:26;;;;;;;;;;;19.70;67.30;;;;;;5072052;28;20422;-68
2021/08/26 12:38:51;;;;;;;;;;;19.70;67.40;;;;;;5076370;28;20015;-67
2021/08/26 12:41:17;;;;;;;;;;;19.70;67.40;;;;;;5075954;28;19920;-67
2021/08/26 12:43:43;;;;;;;;;;;19.60;67.40;;;;;;5072659;28;19927;-68
2021/08/26 12:46:10;;;;;;;;;;;19.70;67.50;;;;;;5071919;28;19989;-65
2021/08/26 12:48:37;;;;;;;;;;;19.70;67.50;;;;;;5061592;28;19933;-67
2021/08/26 12:51:06;;;;;;;;;;;19.70;66.20;;;;;;5076470;28;20310;-66
2021/08/26 12:53:31;;;;;;;;;;;19.70;67.10;;;;;;5074553;28;19916;-67
2021/08/26 12:56:04;;;;;;;;;;;19.70;67.40;;;;;;5061686;28;20271;-68
2021/08/26 12:58:29;;;;;;;;;;;19.70;67.50;;;;;;5080832;28;19912;-67
2021/08/26 13:00:55;;;;;;;;;;;19.70;67.60;;;;;;5070127;28;19923;-67
2021/08/26 13:03:21;;;;;;;;;;;19.70;67.00;;;;;;5065196;28;20294;-67
2021/08/26 13:05:47;;;;;;;;;;;19.70;66.90;;;;;;5063890;28;19916;-67
2021/08/26 13:08:13;;;;;;;;;;;19.70;67.20;;;;;;5068580;28;20380;-66
2021/08/26 13:10:39;;;;;;;;;;;19.70;67.50;;;;;;5061747;28;20537;-67
2021/08/26 13:13:11;;;;;;;;;;;19.70;67.50;;;;;;5061828;28;19983;-68
2021/08/26 13:15:36;;;;;;;;;;;19.70;67.60;;;;;;5076092;28;19913;-67
2021/08/26 13:18:02;;;;;;;;;;;19.70;67.50;;;;;;5062712;28;20298;-67
2021/08/26 13:20:27;;;;;;;;;;;19.70;67.40;;;;;;5078430;28;19912;-66
2021/08/26 13:22:53;;;;;;;;;;;19.70;67.30;;;;;;5069834;28;20264;-67
2021/08/26 13:25:18;;;;;;;;;;;19.70;67.50;;;;;;5061303;28;19940;-68
2021/08/26 13:27:44;;;;;;;;;;;19.70;67.50;;;;;;5065297;28;19916;-68
2021/08/26 13:30:10;;;;;;;;;;;19.70;67.60;;;;;;5082094;28;19920;-67
2021/08/26 13:32:35;;;;;;;;;;;19.70;67.60;;;;;;5075365;28;19912;-68
2021/08/26 13:35:07;;;;;;;;;;;19.70;67.60;;;;;;5071672;28;20351;-67
2021/08/26 13:37:33;;;;;;;;;;;19.70;67.50;;;;;;5065176;28;19939;-66
2021/08/26 13:39:58;;;;;;;;;;;19.70;67.30;;;;;;5071189;28;19998;-68
2021/08/26 13:42:24;;;;;;;;;;;19.60;67.20;;;;;;5081999;28;19924;-69
2021/08/26 13:44:50;;;;;;;;;;;19.70;66.40;;;;;;5069740;28;19917;-68
2021/08/26 13:47:15;;;;;;;;;;;19.70;67.10;;;;;;5065209;28;19916;-68
2021/08/26 13:49:40;;;;;;;;;;;19.70;67.30;;;;;;5078165;28;20369;-68
2021/08/26 13:52:07;;;;;;;;;;;19.70;67.30;;;;;;5078096;28;19994;-68
2021/08/26 13:54:32;;;;;;;;;;;19.70;67.40;;;;;;5072031;28;19930;-68
2021/08/26 13:56:58;;;;;;;;;;;19.70;67.40;;;;;;5047529;28;20370;-68
2021/08/26 13:59:23;;;;;;;;;;;19.70;67.30;;;;;;5074701;28;19946;-68
2021/08/26 14:01:50;;;;;;;;;;;19.70;67.50;;;;;;5069807;28;20406;-67
2021/08/26 14:04:15;;;;;;;;;;;19.70;67.30;;;;;;5076688;28;20475;-68
2021/08/26 14:06:41;;;;;;;;;;;19.60;67.50;;;;;;5072557;28;19923;-68
2021/08/26 14:09:06;;;;;;;;;;;19.70;67.10;;;;;;5068224;28;20346;-68
2021/08/26 14:11:32;;;;;;;;;;;19.70;67.30;;;;;;5046925;28;19920;-68
2021/08/26 14:13:57;;;;;;;;;;;19.70;67.50;;;;;;5064425;28;19920;-67
2021/08/26 14:16:22;;;;;;;;;;;19.70;67.50;;;;;;5068084;28;19963;-67